Terminal Aerodrome Forecast
Issued by NWS

Home | Current Version | Previous Version | Text Only | Print | Product List | Glossary On
Versions: 1 2 3 4 5 6 7 8 9 10 11 12 13 14 15 16 17 18 19 20 21 22 23
000
FTUS45 KCYS 231100
TAFLAR
TAF
KLAR 231120Z 2312/2412 17011KT 4SM BR FEW010
     FM231800 20013G20KT P6SM VCSH BKN120
     FM232300 21010KT P6SM BKN150=

USA.gov is the U.S. government's official web portal to all federal, state and local government web resources and services.